< Typhoon 199619 1996 Season Typhoon 199621 >
Typhoon 199620 (YATES)
General InformationTrack Information on Google MapsDetailed Wind InformationList of All Images || Disaster Info.ResourceGoogle EarthGE AnimationAtom FeedGeoJSON
Detalied Best Track (Time Zone = UTC)
Year Month Day Hour Lat. Long. Pressure (hPa) Wind (kt) Class Image Chart
1996 9 21 00 11.8 166.6 1008 0 2 Image Chart
1996 9 21 06 12.8 165.5 1006 0 2 Image Chart
1996 9 21 12 13.5 164.7 1006 0 2 Image Chart
1996 9 21 18 14.1 163.8 1006 0 2 Image Chart
1996 9 22 00 14.4 162.7 1006 0 2 Image Chart
1996 9 22 06 14.6 161.3 1006 0 2 Image Chart
1996 9 22 12 15.1 159.7 1004 0 2 Image Chart
1996 9 22 18 15.6 158.5 1004 0 2 Image Chart
1996 9 23 00 15.9 157.2 1000 0 2 Image Chart
1996 9 23 03 16.0 156.8 996 35 3 Image Chart
1996 9 23 06 16.2 156.1 994 40 3 Image Chart
1996 9 23 12 16.3 155.0 985 50 4 Image Chart
1996 9 23 18 16.3 153.9 970 60 4 Image Chart
1996 9 24 00 16.2 152.8 960 75 5 Image Chart
1996 9 24 06 16.3 151.5 960 75 5 Image Chart
1996 9 24 12 16.3 150.1 960 75 5 Image Chart
1996 9 24 18 16.2 149.0 950 80 5 Image Chart
1996 9 25 00 16.0 147.9 940 85 5 Image Chart
1996 9 25 06 15.9 146.6 940 85 5 Image Chart
1996 9 25 12 16.0 145.5 940 85 5 Image Chart
1996 9 25 18 16.2 144.7 940 85 5 Image Chart
1996 9 26 00 16.5 143.9 940 85 5 Image Chart
1996 9 26 06 16.9 143.1 940 85 5 Image Chart
1996 9 26 12 17.3 142.4 935 90 5 Image Chart
1996 9 26 18 17.9 141.7 935 90 5 Image Chart
1996 9 27 00 18.8 141.2 940 85 5 Image Chart
1996 9 27 06 19.7 140.4 940 85 5 Image Chart
1996 9 27 12 20.2 139.5 940 85 5 Image Chart
1996 9 27 18 20.7 138.8 940 85 5 Image Chart
1996 9 28 00 21.1 138.5 940 85 5 Image Chart
1996 9 28 06 21.5 138.1 940 85 5 Image Chart
1996 9 28 12 21.9 137.8 945 85 5 Image Chart
1996 9 28 18 22.7 137.8 950 80 5 Image Chart
1996 9 29 00 23.4 138.2 950 80 5 Image Chart
1996 9 29 06 24.1 138.4 955 75 5 Image Chart
1996 9 29 12 25.0 138.7 960 75 5 Image Chart
1996 9 29 18 26.9 139.4 970 65 5 Image Chart
1996 9 30 00 28.5 140.4 970 65 5 Image Chart
1996 9 30 06 29.8 141.7 975 60 4 Image Chart
1996 9 30 12 31.3 143.9 975 60 4 Image Chart
1996 9 30 18 32.3 146.4 980 55 4 Image Chart
1996 10 1 00 33.0 148.9 980 55 4 Image Chart
1996 10 1 06 33.6 152.1 985 50 4 Image Chart
1996 10 1 12 33.8 156.7 990 0 6 Image Chart
1996 10 1 18 34.4 160.7 992 0 6 Image Chart
1996 10 2 00 35.1 164.0 992 0 6 Image Chart
1996 10 2 06 35.7 167.5 992 0 6 Image Chart
1996 10 2 12 36.5 171.0 992 0 6 Image Chart
1996 10 2 18 37.6 174.6 984 0 6 Image Chart
1996 10 3 00 39.0 177.9 980 0 6 Image Chart
1996 10 3 06 40.6 180.5 976 0 6 Image Chart
Japan Meteorological Agency Best Track Data | Correction Date : 1997-01-07
< Typhoon 199619 1996 Season Typhoon 199621 >

Help